EW3958 Weather Reports


Display with metric or nautical units.
time (UTC)temp
F
wind
direction
speed
MPH
gust
MPH
rain 1hr
in
rain 24hr
in
rain mn
in
humidity
%
barometer
mb
20180820205013 71 52 8.0 19.0 0.00 0.22 0.00 45 1020.8
20180820204505 71 17 9.0 20.0 0.00 0.22 0.00 47 1020.9
20180820204014 70 334 10.0 20.0 0.00 0.22 0.00 43 1020.9
20180820203506 70 339 9.0 20.0 0.00 0.22 0.00 46 1021.0
20180820203013 71 349 7.0 15.0 0.00 0.22 0.00 45 1020.9
20180820202505 70 7 7.0 15.0 0.00 0.22 0.00 45 1021.0
20180820202013 71 33 8.0 19.0 0.00 0.22 0.00 49 1021.1
20180820201506 70 17 9.0 20.0 0.00 0.22 0.00 46 1021.0
20180820201014 70 9 10.0 20.0 0.00 0.22 0.00 48 1021.0
20180820200505 70 348 10.0 18.0 0.00 0.22 0.00 47 1021.0
20180820200015 70 332 12.0 20.0 0.00 0.22 0.00 48 1021.0
20180820195506 69 339 12.0 20.0 0.00 0.22 0.00 42 1020.9
20180820195013 70 339 9.0 18.0 0.00 0.22 0.00 50 1021.0
20180820194505 70 345 8.0 18.0 0.00 0.22 0.00 45 1021.1
20180820194014 70 346 9.0 21.0 0.00 0.22 0.00 52 1021.1
20180820193505 69 345 10.0 21.0 0.00 0.22 0.00 51 1021.1
20180820193013 69 343 11.0 21.0 0.00 0.22 0.00 50 1021.1
20180820192506 69 333 13.0 21.0 0.00 0.22 0.00 48 1021.0
20180820192014 69 337 11.0 20.0 0.00 0.22 0.00 51 1021.1
20180820191506 69 351 10.0 21.0 0.00 0.22 0.00 51 1021.1
20180820191013 68 356 11.0 21.0 0.00 0.22 0.00 48 1021.1
20180820190506 68 1 9.0 19.0 0.00 0.22 0.00 52 1021.1
20180820190014 68 11 6.0 20.0 0.00 0.23 0.00 53 1021.1
20180820185506 69 30 6.0 20.0 0.00 0.23 0.00 48 1021.1
20180820185013 69 23 7.0 20.0 0.00 0.23 0.00 53 1021.0
20180820184506 68 353 9.0 22.0 0.00 0.23 0.00 51 1021.1
20180820184013 67 346 9.0 22.0 0.00 0.23 0.00 51 1021.2
20180820183505 68 346 9.0 20.0 0.00 0.23 0.00 52 1021.1
20180820183014 67 343 12.0 21.0 0.00 0.23 0.00 54 1021.2
20180820182505 67 333 11.0 21.0 0.00 0.23 0.00 52 1021.3
20180820182013 68 333 8.0 20.0 0.00 0.23 0.00 53 1021.3
20180820181505 68 347 7.0 18.0 0.00 0.23 0.00 54 1021.3
20180820181013 67 336 9.0 25.0 0.00 0.23 0.00 52 1021.3
20180820180506 67 337 10.0 25.0 0.00 0.23 0.00 53 1021.4
20180820180015 67 359 6.0 22.0 0.00 0.23 0.00 54 1021.4
20180820175506 68 7 6.0 18.0 0.00 0.23 0.00 57 1021.5
20180820175013 66 344 11.0 21.0 0.00 0.23 0.00 56 1021.3
20180820174506 66 335 12.0 21.0 0.00 0.23 0.00 58 1021.3
20180820174013 66 335 12.0 22.0 0.00 0.23 0.00 55 1021.4
20180820173505 66 336 10.0 22.0 0.00 0.23 0.00 56 1021.3
20180820173013 66 340 9.0 20.0 0.00 0.23 0.00 58 1021.4
20180820172506 65 338 10.0 26.0 0.00 0.23 0.00 59 1021.4
20180820172013 65 345 8.0 26.0 0.00 0.23 0.00 55 1021.5
20180820171505 66 352 7.0 20.0 0.00 0.23 0.00 60 1021.6
20180820171013 65 5 10.0 21.0 0.00 0.23 0.00 58 1021.6
20180820170505 65 6 10.0 21.0 0.00 0.23 0.00 58 1021.5
20180820170014 65 330 9.0 23.0 0.00 0.23 0.00 62 1021.4
20180820165505 64 328 9.0 23.0 0.00 0.23 0.00 63 1021.4
20180820165014 64 344 10.0 21.0 0.00 0.23 0.00 65 1021.6
20180820164506 64 347 13.0 21.0 0.00 0.23 0.00 63 1021.6
20180820164014 63 351 11.0 21.0 0.00 0.23 0.00 60 1021.5
20180820163505 64 356 9.0 20.0 0.00 0.23 0.00 64 1021.5
20180820163014 64 4 10.0 23.0 0.00 0.23 0.00 64 1021.5
20180820162505 64 356 13.0 30.0 0.00 0.23 0.00 65 1021.5
20180820162014 63 357 11.0 30.0 0.00 0.23 0.00 62 1021.6
20180820161506 64 1 8.0 18.0 0.00 0.23 0.00 66 1021.5
20180820161013 63 342 11.0 24.0 0.00 0.23 0.00 66 1021.4
20180820160506 62 338 14.0 24.0 0.00 0.23 0.00 65 1021.5
20180820160013 62 346 13.0 22.0 0.00 0.23 0.00 68 1021.4
20180820155506 62 342 13.0 26.0 0.00 0.23 0.00 67 1021.5
20180820155013 62 335 12.0 26.0 0.00 0.23 0.00 68 1021.4
20180820154505 61 338 11.0 20.0 0.00 0.23 0.00 68 1021.3
20180820154014 62 333 11.0 20.0 0.00 0.23 0.00 70 1021.3
20180820153505 61 342 8.0 18.0 0.00 0.23 0.00 70 1021.2
20180820153013 61 351 7.0 15.0 0.00 0.23 0.00 70 1021.3
20180820152506 61 342 8.0 23.0 0.00 0.23 0.00 73 1021.3
20180820152013 60 336 10.0 23.0 0.00 0.23 0.00 71 1021.3
20180820151505 60 333 10.0 19.0 0.00 0.23 0.00 72 1021.3
20180820151013 60 339 11.0 20.0 0.00 0.23 0.00 72 1021.4
20180820150505 59 345 10.0 20.0 0.00 0.23 0.00 73 1021.5
20180820150014 59 340 10.0 20.0 0.00 0.23 0.00 73 1021.5
20180820145505 58 336 9.0 18.0 0.00 0.23 0.00 75 1021.6
20180820145014 58 332 7.0 16.0 0.00 0.23 0.00 75 1021.6
20180820144505 58 322 8.0 15.0 0.00 0.23 0.00 75 1021.6
20180820144013 57 325 10.0 19.0 0.00 0.23 0.00 76 1021.6
20180820143505 57 320 11.0 19.0 0.00 0.23 0.00 76 1021.6
20180820143013 57 313 10.0 19.0 0.00 0.23 0.00 77 1021.6
20180820142506 56 318 9.0 19.0 0.00 0.23 0.00 77 1021.6
20180820142013 56 311 9.0 19.0 0.00 0.23 0.00 80 1021.6
20180820141505 56 308 9.0 19.0 0.00 0.23 0.00 77 1021.6
20180820141013 55 314 9.0 18.0 0.00 0.23 0.00 80 1021.7
20180820140505 55 317 8.0 14.0 0.00 0.23 0.00 79 1021.7
20180820140013 55 315 9.0 15.0 0.00 0.23 0.00 80 1021.7
20180820135505 54 312 10.0 15.0 0.00 0.23 0.00 80 1021.8
20180820135012 54 310 8.0 18.0 0.00 0.23 0.00 81 1021.8
20180820134505 54 311 8.0 18.0 0.00 0.23 0.00 82 1021.7
20180820134013 53 311 8.0 16.0 0.00 0.23 0.00 81 1021.6
20180820133506 53 303 7.0 15.0 0.00 0.23 0.00 83 1021.6
20180820133013 52 299 6.0 12.0 0.00 0.23 0.00 83 1021.6
20180820132505 52 308 5.0 12.0 0.00 0.23 0.00 83 1021.7
20180820132014 52 312 5.0 12.0 0.00 0.23 0.00 83 1021.7
20180820131505 51 310 6.0 12.0 0.00 0.23 0.00 83 1021.7
20180820131013 51 314 6.0 12.0 0.00 0.23 0.00 83 1021.7
20180820130505 51 318 7.0 12.0 0.00 0.23 0.00 84 1021.6
20180820130014 51 310 7.0 13.0 0.00 0.23 0.00 83 1021.6
20180820125505 50 297 6.0 13.0 0.00 0.23 0.00 84 1021.6
20180820125013 50 291 5.0 12.0 0.00 0.23 0.00 84 1021.6
20180820124506 50 301 5.0 12.0 0.00 0.23 0.00 84 1021.5
20180820124012 50 310 6.0 12.0 0.00 0.23 0.00 83 1021.3
20180820123505 50 309 6.0 15.0 0.00 0.23 0.00 83 1021.3
20180820123013 50 311 8.0 15.0 0.00 0.23 0.00 84 1021.2
20180820122505 50 318 8.0 13.0 0.00 0.23 0.00 83 1021.1
20180820122013 50 316 8.0 13.0 0.00 0.23 0.00 84 1021.0
20180820121505 50 309 7.0 13.0 0.00 0.23 0.00 83 1021.0
20180820121013 50 303 6.0 12.0 0.00 0.23 0.00 84 1021.0
20180820120505 50 297 6.0 12.0 0.00 0.23 0.00 85 1021.0
20180820120013 50 293 5.0 11.0 0.00 0.23 0.00 84 1020.9
20180820115505 50 290 3.0 9.0 0.00 0.23 0.00 85 1020.8
20180820115013 50 305 3.0 9.0 0.00 0.23 0.00 85 1020.9
20180820114505 50 309 4.0 11.0 0.00 0.23 0.00 84 1020.8
20180820114012 50 304 6.0 12.0 0.00 0.23 0.00 84 1020.6
20180820113505 50 305 6.0 12.0 0.00 0.23 0.00 83 1020.6
20180820113012 51 311 7.0 15.0 0.00 0.23 0.00 83 1020.4
20180820112505 51 308 8.0 15.0 0.00 0.23 0.00 83 1020.5
20180820112013 50 302 6.0 15.0 0.00 0.23 0.00 83 1020.4
20180820111505 51 296 6.0 13.0 0.00 0.23 0.00 83 1020.2
20180820111013 51 295 6.0 12.0 0.00 0.23 0.00 83 1020.2
20180820110505 51 296 5.0 12.0 0.00 0.23 0.00 82 1020.1
20180820110012 51 304 4.0 12.0 0.00 0.23 0.00 83 1020.1
20180820105504 51 314 6.0 12.0 0.00 0.23 0.00 82 1019.9
20180820105012 51 320 6.0 15.0 0.00 0.23 0.00 82 1019.9
20180820104505 51 317 6.0 15.0 0.00 0.23 0.00 82 1019.9
20180820104013 51 316 5.0 14.0 0.00 0.23 0.00 82 1019.9
20180820103505 52 315 6.0 14.0 0.00 0.23 0.00 81 1019.8
20180820103013 52 311 8.0 15.0 0.00 0.23 0.00 81 1019.8
20180820102505 52 316 10.0 18.0 0.00 0.23 0.00 80 1019.8
20180820102013 53 317 10.0 18.0 0.00 0.23 0.00 79 1019.8
20180820101505 52 319 9.0 16.0 0.00 0.23 0.00 81 1019.7
20180820101013 52 320 9.0 19.0 0.00 0.23 0.00 80 1019.7
20180820100506 52 317 10.0 19.0 0.00 0.23 0.00 80 1019.7
20180820100013 52 317 10.0 18.0 0.00 0.23 0.00 81 1019.6
20180820095505 52 323 8.0 16.0 0.00 0.23 0.00 82 1019.6
20180820095013 52 316 8.0 16.0 0.00 0.23 0.00 82 1019.6
20180820094505 52 306 9.0 19.0 0.00 0.23 0.00 82 1019.6
20180820094013 52 311 12.0 20.0 0.00 0.23 0.00 81 1019.6
20180820093505 53 320 12.0 20.0 0.00 0.23 0.00 81 1019.5
20180820093013 53 326 11.0 16.0 0.00 0.23 0.00 81 1019.4
20180820092505 53 324 11.0 16.0 0.00 0.23 0.00 81 1019.5
20180820092012 53 319 11.0 21.0 0.00 0.23 0.00 82 1019.5
20180820091012 53 326 10.0 18.0 0.00 0.23 0.00 83 1019.4
20180820090505 53 325 11.0 20.0 0.00 0.23 0.00 82 1019.4
20180820090013 53 315 12.0 23.0 0.00 0.23 0.00 82 1019.3
20180820085505 52 313 11.0 23.0 0.00 0.23 0.00 83 1019.2
20180820085013 52 311 9.0 16.0 0.00 0.23 0.00 85 1019.4
20180820084505 52 308 8.0 14.0 0.00 0.23 0.00 84 1019.4
20180820084013 53 305 7.0 14.0 0.00 0.23 0.00 84 1019.3
20180820083505 53 303 8.0 16.0 0.00 0.23 0.00 84 1019.2
20180820083014 53 307 8.0 16.0 0.00 0.23 0.00 84 1019.3
20180820082505 53 308 7.0 14.0 0.00 0.23 0.00 85 1019.3
20180820082013 53 306 7.0 15.0 0.00 0.23 0.00 85 1019.3
20180820081505 53 305 8.0 15.0 0.00 0.23 0.00 84 1019.2
20180820081013 53 307 7.0 16.0 0.00 0.23 0.00 85 1019.2
20180820080506 53 310 7.0 16.0 0.00 0.23 0.00 85 1019.1
20180820080014 53 303 7.0 12.0 0.00 0.23 0.00 85 1019.2
20180820075506 54 299 6.0 12.0 0.00 0.23 0.00 85 1019.2
20180820075013 54 306 7.0 14.0 0.00 0.23 0.00 84 1019.3
20180820074505 54 310 9.0 18.0 0.00 0.23 0.00 85 1019.3
20180820074013 54 312 9.0 18.0 0.00 0.23 0.00 83 1019.3
20180820073505 54 312 9.0 19.0 0.00 0.23 0.00 84 1019.3
20180820073012 54 312 9.0 19.0 0.00 0.23 0.00 84 1019.3
20180820072505 54 315 9.0 15.0 0.00 0.23 0.00 83 1019.3
20180820072013 54 320 10.0 18.0 0.00 0.23 0.00 83 1019.3
20180820071504 54 322 11.0 18.0 0.00 0.23 0.00 84 1019.3
20180820071013 55 319 11.0 15.0 0.00 0.23 0.00 83 1019.3
20180820070505 54 322 10.0 18.0 0.00 0.23 0.00 84 1019.3
20180820070014 55 319 11.0 18.0 0.00 0.23 0.00 85 1019.3
20180820065505 55 312 10.0 18.0 0.00 0.23 0.00 84 1019.3
20180820065013 55 311 10.0 18.0 0.00 0.23 0.00 85 1019.4
20180820064505 55 313 12.0 18.0 0.00 0.23 0.00 85 1019.4
20180820064012 55 314 11.0 18.0 0.00 0.23 0.00 85 1019.4
20180820063505 55 315 9.0 18.0 0.00 0.23 0.00 86 1019.5
20180820063013 55 312 9.0 15.0 0.00 0.23 0.00 86 1019.4
20180820062504 55 305 9.0 18.0 0.00 0.23 0.00 87 1019.5
20180820062013 55 303 8.0 18.0 0.00 0.23 0.00 87 1019.4
20180820061506 55 310 7.0 18.0 0.00 0.23 0.00 88 1019.5
20180820061013 56 319 10.0 18.0 0.00 0.23 0.00 87 1019.5
20180820060504 56 320 11.0 18.0 0.00 0.23 0.00 87 1019.6
20180820060013 56 314 10.0 18.0 0.00 0.23 0.00 87 1019.4
20180820055504 56 312 11.0 19.0 0.00 0.23 0.00 87 1019.5
20180820055013 56 318 12.0 19.0 0.00 0.23 0.00 86 1019.4
20180820054505 56 321 11.0 19.0 0.00 0.23 0.00 87 1019.4
20180820054012 56 319 11.0 19.0 0.00 0.23 0.00 88 1019.5
20180820053505 56 314 10.0 19.0 0.00 0.23 0.00 88 1019.5
20180820053013 57 321 9.0 16.0 0.00 0.23 0.00 89 1019.5
20180820052505 57 329 11.0 19.0 0.00 0.23 0.00 88 1019.5
20180820052012 57 327 11.0 19.0 0.00 0.23 0.00 89 1019.5
20180820051505 57 333 9.0 16.0 0.00 0.23 0.00 89 1019.5
20180820051012 57 334 10.0 20.0 0.00 0.23 0.00 90 1019.6
20180820050504 57 333 11.0 20.0 0.00 0.23 0.00 89 1019.6
20180820050014 57 333 11.0 21.0 0.00 0.23 0.00 90 1019.6
20180820045505 57 324 14.0 25.0 0.00 0.23 0.23 90 1019.6
20180820045013 57 322 14.0 25.0 0.00 0.23 0.23 91 1019.6
20180820044505 57 326 13.0 21.0 0.00 0.23 0.23 92 1019.6
20180820044012 57 328 12.0 21.0 0.00 0.23 0.23 92 1019.6
20180820043505 57 332 10.0 16.0 0.00 0.23 0.23 93 1019.6
20180820043013 57 328 10.0 19.0 0.00 0.23 0.23 93 1019.6
20180820042505 57 326 10.0 19.0 0.00 0.23 0.23 93 1019.5
20180820042013 57 327 9.0 16.0 0.01 0.23 0.23 93 1019.5
20180820041506 57 323 10.0 20.0 0.01 0.23 0.23 95 1019.6
20180820041013 57 323 11.0 20.0 0.01 0.23 0.23 93 1019.6
20180820040504 57 327 11.0 20.0 0.01 0.23 0.23 95 1019.7
20180820040013 57 327 12.0 20.0 0.01 0.23 0.23 95 1019.6
20180820035505 57 322 13.0 20.0 0.01 0.23 0.23 95 1019.5
20180820035013 57 323 12.0 20.0 0.01 0.23 0.23 96 1019.5
20180820034504 57 329 10.0 19.0 0.01 0.23 0.23 96 1019.5
20180820034012 57 330 11.0 22.0 0.02 0.23 0.23 96 1019.5
20180820033505 57 330 12.0 22.0 0.02 0.23 0.23 96 1019.3
20180820033012 57 331 11.0 21.0 0.02 0.23 0.23 96 1019.3
20180820032506 57 330 11.0 24.0 0.01 0.22 0.22 96 1019.3
20180820032013 57 333 13.0 24.0 0.02 0.22 0.22 96 1019.3
20180820031506 57 337 14.0 26.0 0.02 0.22 0.22 97 1019.3
20180820031013 57 336 14.0 26.0 0.02 0.22 0.22 96 1019.2
20180820030504 57 335 15.0 26.0 0.02 0.22 0.22 96 1019.2
20180820030013 58 337 16.0 26.0 0.02 0.22 0.22 96 1019.0
20180820025504 58 338 14.0 23.0 0.03 0.22 0.22 97 1018.9
20180820025013 58 338 13.0 23.0 0.03 0.22 0.22 97 1018.9
20180820024504 58 335 13.0 23.0 0.04 0.22 0.22 97 1018.8
20180820024013 58 332 14.0 23.0 0.03 0.21 0.21 97 1018.7
20180820023504 58 331 13.0 23.0 0.04 0.21 0.21 97 1018.6
20180820023013 58 328 12.0 22.0 0.04 0.21 0.21 97 1018.6
20180820022504 58 330 13.0 22.0 0.05 0.21 0.21 97 1018.5
20180820022013 58 332 14.0 22.0 0.04 0.20 0.20 97 1018.4
20180820021504 58 332 14.0 26.0 0.05 0.20 0.20 97 1018.3
20180820021013 58 336 14.0 26.0 0.05 0.20 0.20 97 1018.3
20180820020504 58 340 14.0 22.0 0.06 0.20 0.20 97 1018.2
20180820020013 58 345 15.0 24.0 0.07 0.20 0.20 97 1018.2
20180820015504 58 340 15.0 24.0 0.06 0.19 0.19 97 1018.1
20180820015013 58 339 15.0 26.0 0.06 0.19 0.19 97 1018.1
20180820014504 58 339 16.0 26.0 0.06 0.18 0.18 96 1018.1
20180820014013 58 339 15.0 22.0 0.07 0.18 0.18 97 1017.9
20180820013504 58 340 14.0 23.0 0.06 0.17 0.17 96 1017.9
20180820013013 58 336 15.0 25.0 0.06 0.17 0.17 96 1017.8
20180820012504 58 342 16.0 25.0 0.06 0.16 0.16 96 1017.8
20180820012012 58 345 16.0 25.0 0.06 0.16 0.16 96 1017.8
20180820011504 58 340 17.0 26.0 0.05 0.15 0.15 96 1017.7
20180820011013 58 338 15.0 26.0 0.05 0.15 0.15 96 1017.6
20180820010504 58 339 13.0 23.0 0.04 0.14 0.14 96 1017.5
20180820010013 58 343 15.0 32.0 0.03 0.13 0.13 96 1017.5
20180820005504 58 343 16.0 32.0 0.04 0.13 0.13 96 1017.3
20180820005013 58 342 15.0 24.0 0.03 0.12 0.12 96 1017.3
20180820004505 58 341 15.0 30.0 0.03 0.12 0.12 96 1017.3
20180820004013 58 339 16.0 30.0 0.02 0.10 0.10 96 1017.2
20180820003504 58 338 14.0 26.0 0.02 0.10 0.10 96 1017.1
20180820003012 58 340 14.0 24.0 0.03 0.10 0.10 96 1016.8
20180820002505 58 338 15.0 22.0 0.02 0.09 0.09 96 1016.8
20180820002013 58 335 14.0 22.0 0.02 0.09 0.09 96 1016.8
20180820001504 58 334 13.0 25.0 0.02 0.09 0.09 96 1016.7
20180820001013 58 337 13.0 25.0 0.03 0.09 0.09 96 1016.6
20180820000504 58 335 12.0 22.0 0.03 0.09 0.09 96 1016.5
20180820000013 58 333 13.0 24.0 0.03 0.09 0.09 96 1016.5
20180819235504 58 326 15.0 24.0 0.03 0.08 0.08 96 1016.6
20180819235013 58 322 14.0 24.0 0.03 0.08 0.08 96 1016.5
20180819234504 58 325 13.0 23.0 0.04 0.08 0.08 96 1016.4
20180819234012 58 326 13.0 22.0 0.05 0.08 0.08 96 1016.5
20180819233505 58 326 12.0 21.0 0.05 0.08 0.08 96 1016.4
20180819233012 58 324 13.0 21.0 0.05 0.07 0.07 96 1016.3
20180819232505 58 325 11.0 20.0 0.06 0.07 0.07 96 1016.4
20180819232012 58 329 12.0 19.0 0.06 0.07 0.07 96 1016.4
20180819231504 59 331 12.0 20.0 0.06 0.07 0.07 96 1016.3
20180819231013 59 330 12.0 23.0 0.05 0.06 0.06 96 1016.3
20180819230504 59 324 12.0 23.0 0.05 0.06 0.06 96 1016.3
20180819230012 59 314 11.0 19.0 0.04 0.05 0.05 96 1016.2
20180819225504 59 315 11.0 20.0 0.04 0.05 0.05 96 1016.2
20180819225012 59 322 12.0 20.0 0.04 0.05 0.05 96 1016.2
20180819224504 59 323 13.0 20.0 0.03 0.04 0.04 96 1016.2
20180819224012 59 326 13.0 21.0 0.02 0.03 0.03 95 1016.2
20180819223505 59 324 14.0 22.0 0.02 0.03 0.03 95 1016.1
20180819223011 59 321 13.0 22.0 0.01 0.02 0.02 95 1016.2
20180819222505 59 322 13.0 25.0 0.00 0.01 0.01 95 1016.2
20180819222011 59 324 13.0 25.0 0.00 0.01 0.01 93 1016.2
20180819221504 59 325 11.0 21.0 0.00 0.01 0.01 93 1016.1
20180819221011 59 324 12.0 21.0 0.00 0.01 0.01 93 1016.1
20180819220504 59 329 12.0 21.0 0.00 0.01 0.01 92 1016.0
20180819220012 59 327 14.0 24.0 0.00 0.01 0.01 92 1016.0
20180819215504 59 331 13.0 24.0 0.00 0.01 0.01 92 1016.0
20180819215012 59 334 12.0 24.0 0.00 0.01 0.01 92 1015.9
20180819214504 59 333 13.0 24.0 0.00 0.01 0.01 92 1015.8
20180819214011 59 335 13.0 21.0 0.00 0.01 0.01 92 1015.8
20180819213504 59 333 13.0 20.0 0.00 0.01 0.01 92 1015.8
20180819213011 60 334 12.0 21.0 0.00 0.01 0.01 92 1015.8
20180819212504 60 336 12.0 24.0 0.00 0.01 0.01 91 1015.7
20180819212012 60 333 12.0 24.0 0.00 0.01 0.01 91 1015.7
20180819211504 60 325 11.0 19.0 0.00 0.01 0.01 90 1015.7
20180819211011 60 335 11.0 20.0 0.00 0.01 0.01 90 1015.6
20180819210504 60 338 12.0 22.0 0.00 0.01 0.01 91 1015.7
20180819210011 60 335 13.0 22.0 0.00 0.01 0.01 91 1015.6
20180819205504 60 335 13.0 20.0 0.00 0.01 0.01 91 1015.6